HMS Portugal — V2NA6 — position and weather

sailwx.info

Track history (hours):
 
Tides and Currents Weather Stations Pressure Air Temp Water Temp Dewpoint Dewpoint Depression Visibility Wind Speed Wind Dir Waves Ship Positions

HMS Portugal

Last reported at 2018-Feb-16 10:07 UTC. Time now 2018-Feb-20 00:14 UTC.
Position N 25°33' W 079°36'.

Length 100 m; draft 6.2 m.

Type: Cargo ship. MMSI: 203640704.

Date/timePositionNaut miles runAvg speedWind from/ knotsBaromVisibWave heightAir tempDewpointWater temp
2018-Feb-16 10:07N 25°33' W 079°36'2 9.8
2018-Feb-16 09:58N 25°35' W 079°36'5 9.8
2018-Feb-16 09:30N 25°39' W 079°36'5 9.8
2018-Feb-16 09:00N 25°44' W 079°36'5 9.8
2018-Feb-16 08:30N 25°49' W 079°35'5 9.9
2018-Feb-16 08:00N 25°54' W 079°35'5 9.9
2018-Feb-16 07:30N 25°59' W 079°35'5 9.9
2018-Feb-16 07:00N 26°04' W 079°35'510.0
2018-Feb-16 06:29N 26°09' W 079°35'5 9.9
2018-Feb-16 06:00N 26°13' W 079°37'5 9.9
2018-Feb-16 05:30N 26°18' W 079°40'5 9.7
2018-Feb-16 05:00N 26°22' W 079°43'5 9.4
2018-Feb-16 04:30N 26°25' W 079°46'5 9.2
2018-Feb-16 04:00N 26°30' W 079°49'21 9.8
2018-Feb-16 01:53N 26°46' W 080°02'1 0.0
2018-Feb-15 00:09N 26°46' W 080°03'1 3.9
2018-Feb-15 00:01N 26°46' W 080°02'2 0.0
2018-Feb-13 09:35N 26°45' W 080°01'0 0.0
2018-Feb-13 09:29N 26°45' W 080°01'0 0.0
2018-Feb-13 08:59N 26°45' W 080°01'0 0.0
2018-Feb-13 08:29N 26°45' W 080°01'0 0.0
2018-Feb-13 07:17N 26°45' W 080°01'0 0.0
2018-Feb-13 06:23N 26°45' W 080°01'0 0.0
2018-Feb-13 05:59N 26°45' W 080°01'0 0.0
2018-Feb-13 05:29N 26°45' W 080°01'0 0.0
2018-Feb-13 04:59N 26°45' W 080°01'2 0.2
2018-Feb-12 17:48N 26°46' W 080°03'0 0.0
2018-Feb-12 17:30N 26°46' W 080°03'0 0.2
2018-Feb-12 17:00N 26°46' W 080°03'2413.2
2018-Feb-12 15:09N 26°27' W 079°47'215.1
2018-Feb-12 15:00N 26°25' W 079°45'714.8
2018-Feb-12 14:30N 26°18' W 079°41'714.5
2018-Feb-12 14:00N 26°12' W 079°37'714.0
2018-Feb-12 13:30N 26°05' W 079°35'814.8
2018-Feb-12 12:58N 25°57' W 079°35'714.8
2018-Feb-12 12:30N 25°51' W 079°35'714.9
2018-Feb-12 12:00N 25°43' W 079°34'813.9
2018-Feb-12 11:24N 25°35' W 079°35'614.4
2018-Feb-12 10:59N 25°29' W 079°36'  
2018-Feb-07 07:37N 25°31' W 079°36'110.7
2018-Feb-07 07:29N 25°33' W 079°36'510.6
2018-Feb-07 06:59N 25°38' W 079°36'510.5
2018-Feb-07 06:30N 25°43' W 079°36'510.4
2018-Feb-07 06:00N 25°48' W 079°35'510.3
2018-Feb-07 05:30N 25°53' W 079°35'510.2
2018-Feb-07 05:00N 25°59' W 079°35'510.0
2018-Feb-07 04:30N 26°03' W 079°35'5 9.8
2018-Feb-07 04:00N 26°08' W 079°35'5 9.6
2018-Feb-07 03:30N 26°13' W 079°38'5 9.6
2018-Feb-07 03:00N 26°17' W 079°40'5 9.5
2018-Feb-07 02:30N 26°21' W 079°43'5 9.4
2018-Feb-07 02:00N 26°25' W 079°45'5 9.3
2018-Feb-07 01:30N 26°29' W 079°48'22 1.7
2018-Feb-06 12:58N 26°46' W 080°03'4 7.2
2018-Feb-06 12:24N 26°47' W 079°59'1 3.2
2018-Feb-06 11:57N 26°48' W 079°57'1 2.2
2018-Feb-06 11:18N 26°50' W 079°57'1 2.3
2018-Feb-06 10:59N 26°50' W 079°58'  
Track history (hours):
 
Tides and Currents Weather Stations Pressure Air Temp Water Temp Dewpoint Dewpoint Depression Visibility Wind Speed Wind Dir Waves Ship Positions

HMS Portugal

Last reported at 2018-Feb-16 10:07 UTC. Time now 2018-Feb-20 00:14 UTC.
Position N 25°33' W 079°36'.

Length 100 m; draft 6.2 m.

Type: Cargo ship. MMSI: 203640704.

Date/timePositionNaut miles runAvg speedWind from/ knotsBaromVisibWave heightAir tempDewpointWater temp
2018-Feb-16 10:07N 25°33' W 079°36'2 9.8
2018-Feb-16 09:58N 25°35' W 079°36'5 9.8
2018-Feb-16 09:30N 25°39' W 079°36'5 9.8
2018-Feb-16 09:00N 25°44' W 079°36'5 9.8
2018-Feb-16 08:30N 25°49' W 079°35'5 9.9
2018-Feb-16 08:00N 25°54' W 079°35'5 9.9
2018-Feb-16 07:30N 25°59' W 079°35'5 9.9
2018-Feb-16 07:00N 26°04' W 079°35'510.0
2018-Feb-16 06:29N 26°09' W 079°35'5 9.9
2018-Feb-16 06:00N 26°13' W 079°37'5 9.9
2018-Feb-16 05:30N 26°18' W 079°40'5 9.7
2018-Feb-16 05:00N 26°22' W 079°43'5 9.4
2018-Feb-16 04:30N 26°25' W 079°46'5 9.2
2018-Feb-16 04:00N 26°30' W 079°49'21 9.8
2018-Feb-16 01:53N 26°46' W 080°02'1 0.0
2018-Feb-15 00:09N 26°46' W 080°03'1 3.9
2018-Feb-15 00:01N 26°46' W 080°02'2 0.0
2018-Feb-13 09:35N 26°45' W 080°01'0 0.0
2018-Feb-13 09:29N 26°45' W 080°01'0 0.0
2018-Feb-13 08:59N 26°45' W 080°01'0 0.0
2018-Feb-13 08:29N 26°45' W 080°01'0 0.0
2018-Feb-13 07:17N 26°45' W 080°01'0 0.0
2018-Feb-13 06:23N 26°45' W 080°01'0 0.0
2018-Feb-13 05:59N 26°45' W 080°01'0 0.0
2018-Feb-13 05:29N 26°45' W 080°01'0 0.0
2018-Feb-13 04:59N 26°45' W 080°01'2 0.2
2018-Feb-12 17:48N 26°46' W 080°03'0 0.0
2018-Feb-12 17:30N 26°46' W 080°03'0 0.2
2018-Feb-12 17:00N 26°46' W 080°03'2413.2
2018-Feb-12 15:09N 26°27' W 079°47'215.1
2018-Feb-12 15:00N 26°25' W 079°45'714.8
2018-Feb-12 14:30N 26°18' W 079°41'714.5
2018-Feb-12 14:00N 26°12' W 079°37'714.0
2018-Feb-12 13:30N 26°05' W 079°35'814.8
2018-Feb-12 12:58N 25°57' W 079°35'714.8
2018-Feb-12 12:30N 25°51' W 079°35'714.9
2018-Feb-12 12:00N 25°43' W 079°34'813.9
2018-Feb-12 11:24N 25°35' W 079°35'614.4
2018-Feb-12 10:59N 25°29' W 079°36'  
2018-Feb-07 07:37N 25°31' W 079°36'110.7
2018-Feb-07 07:29N 25°33' W 079°36'510.6
2018-Feb-07 06:59N 25°38' W 079°36'510.5
2018-Feb-07 06:30N 25°43' W 079°36'510.4
2018-Feb-07 06:00N 25°48' W 079°35'510.3
2018-Feb-07 05:30N 25°53' W 079°35'510.2
2018-Feb-07 05:00N 25°59' W 079°35'510.0
2018-Feb-07 04:30N 26°03' W 079°35'5 9.8
2018-Feb-07 04:00N 26°08' W 079°35'5 9.6
2018-Feb-07 03:30N 26°13' W 079°38'5 9.6
2018-Feb-07 03:00N 26°17' W 079°40'5 9.5
2018-Feb-07 02:30N 26°21' W 079°43'5 9.4
2018-Feb-07 02:00N 26°25' W 079°45'5 9.3
2018-Feb-07 01:30N 26°29' W 079°48'22 1.7
2018-Feb-06 12:58N 26°46' W 080°03'4 7.2
2018-Feb-06 12:24N 26°47' W 079°59'1 3.2
2018-Feb-06 11:57N 26°48' W 079°57'1 2.2
2018-Feb-06 11:18N 26°50' W 079°57'1 2.3
2018-Feb-06 10:59N 26°50' W 079°58'  

Dump ship's entire track history